sensor_id;sensor_type;location;lat;lon;timestamp;temperature;humidity
12039;DHT22;6080;48.818;9.526;2022-10-26T00:02:15;11.40;99.90
12039;DHT22;6080;48.818;9.526;2022-10-26T00:04:41;11.50;99.90
12039;DHT22;6080;48.818;9.526;2022-10-26T00:07:07;11.50;99.90
12039;DHT22;6080;48.818;9.526;2022-10-26T00:09:33;11.50;99.90
12039;DHT22;6080;48.818;9.526;2022-10-26T00:11:58;11.50;99.90
12039;DHT22;6080;48.818;9.526;2022-10-26T00:14:25;11.50;99.90
12039;DHT22;6080;48.818;9.526;2022-10-26T00:16:51;11.50;99.90
12039;DHT22;6080;48.818;9.526;2022-10-26T00:19:17;11.40;99.90
12039;DHT22;6080;48.818;9.526;2022-10-26T00:21:43;11.50;99.90
12039;DHT22;6080;48.818;9.526;2022-10-26T00:24:10;11.50;99.90
12039;DHT22;6080;48.818;9.526;2022-10-26T00:26:36;11.50;99.90
12039;DHT22;6080;48.818;9.526;2022-10-26T00:29:02;11.50;99.90
12039;DHT22;6080;48.818;9.526;2022-10-26T00:31:28;11.60;99.90
12039;DHT22;6080;48.818;9.526;2022-10-26T00:33:55;11.60;99.90
12039;DHT22;6080;48.818;9.526;2022-10-26T00:36:22;11.50;99.90
12039;DHT22;6080;48.818;9.526;2022-10-26T00:38:49;11.50;99.90
12039;DHT22;6080;48.818;9.526;2022-10-26T00:41:17;11.60;99.90
12039;DHT22;6080;48.818;9.526;2022-10-26T00:43:43;11.60;99.90
12039;DHT22;6080;48.818;9.526;2022-10-26T00:46:14;11.60;99.90
12039;DHT22;6080;48.818;9.526;2022-10-26T00:48:44;11.60;99.90
12039;DHT22;6080;48.818;9.526;2022-10-26T00:51:31;11.60;99.90
12039;DHT22;6080;48.818;9.526;2022-10-26T00:54:00;11.60;99.90
12039;DHT22;6080;48.818;9.526;2022-10-26T00:56:28;11.60;99.90
12039;DHT22;6080;48.818;9.526;2022-10-26T00:58:59;11.70;99.90
12039;DHT22;6080;48.818;9.526;2022-10-26T01:01:26;11.70;99.90
12039;DHT22;6080;48.818;9.526;2022-10-26T01:03:53;11.70;99.90
12039;DHT22;6080;48.818;9.526;2022-10-26T01:06:20;11.70;99.90
12039;DHT22;6080;48.818;9.526;2022-10-26T01:08:46;11.70;99.90
12039;DHT22;6080;48.818;9.526;2022-10-26T01:11:13;11.70;99.90
12039;DHT22;6080;48.818;9.526;2022-10-26T01:13:41;11.70;99.90
12039;DHT22;6080;48.818;9.526;2022-10-26T01:19:54;11.80;99.90
12039;DHT22;6080;48.818;9.526;2022-10-26T01:22:31;11.80;99.90
12039;DHT22;6080;48.818;9.526;2022-10-26T01:27:56;11.80;99.90
12039;DHT22;6080;48.818;9.526;2022-10-26T01:35:49;11.80;99.90
12039;DHT22;6080;48.818;9.526;2022-10-26T01:38:36;11.80;99.90
12039;DHT22;6080;48.818;9.526;2022-10-26T01:43:42;11.80;99.90
12039;DHT22;6080;48.818;9.526;2022-10-26T01:46:10;11.70;99.90
12039;DHT22;6080;48.818;9.526;2022-10-26T01:48:39;11.70;99.90
12039;DHT22;6080;48.818;9.526;2022-10-26T01:51:07;11.70;99.90
12039;DHT22;6080;48.818;9.526;2022-10-26T01:53:34;11.80;99.90
12039;DHT22;6080;48.818;9.526;2022-10-26T01:56:00;11.80;99.90
12039;DHT22;6080;48.818;9.526;2022-10-26T02:01:43;11.80;99.90
12039;DHT22;6080;48.818;9.526;2022-10-26T02:07:06;11.70;99.90
12039;DHT22;6080;48.818;9.526;2022-10-26T02:10:04;11.80;99.90
12039;DHT22;6080;48.818;9.526;2022-10-26T02:15:16;11.80;99.90
12039;DHT22;6080;48.818;9.526;2022-10-26T02:18:28;11.80;99.90
12039;DHT22;6080;48.818;9.526;2022-10-26T02:20:55;11.80;99.90
12039;DHT22;6080;48.818;9.526;2022-10-26T02:23:23;11.70;99.90
12039;DHT22;6080;48.818;9.526;2022-10-26T02:25:55;11.70;99.90
12039;DHT22;6080;48.818;9.526;2022-10-26T02:28:26;11.70;99.90
12039;DHT22;6080;48.818;9.526;2022-10-26T02:30:56;11.70;99.90
12039;DHT22;6080;48.818;9.526;2022-10-26T02:33:23;11.60;99.90
12039;DHT22;6080;48.818;9.526;2022-10-26T02:35:53;11.60;99.90
12039;DHT22;6080;48.818;9.526;2022-10-26T02:38:20;11.60;99.90
12039;DHT22;6080;48.818;9.526;2022-10-26T02:40:50;11.60;99.90
12039;DHT22;6080;48.818;9.526;2022-10-26T02:43:17;11.50;99.90
12039;DHT22;6080;48.818;9.526;2022-10-26T02:45:51;11.50;99.90
12039;DHT22;6080;48.818;9.526;2022-10-26T02:48:19;11.40;99.90
12039;DHT22;6080;48.818;9.526;2022-10-26T02:53:35;11.50;99.90
12039;DHT22;6080;48.818;9.526;2022-10-26T02:56:23;11.50;99.90
12039;DHT22;6080;48.818;9.526;2022-10-26T02:58:54;11.50;99.90
12039;DHT22;6080;48.818;9.526;2022-10-26T03:01:22;11.40;99.90
12039;DHT22;6080;48.818;9.526;2022-10-26T03:03:47;11.40;99.90
12039;DHT22;6080;48.818;9.526;2022-10-26T03:06:20;11.40;99.90
12039;DHT22;6080;48.818;9.526;2022-10-26T03:08:47;11.40;99.90
12039;DHT22;6080;48.818;9.526;2022-10-26T03:11:13;11.40;99.90
12039;DHT22;6080;48.818;9.526;2022-10-26T03:13:39;11.40;99.90
12039;DHT22;6080;48.818;9.526;2022-10-26T03:16:05;11.40;99.90
12039;DHT22;6080;48.818;9.526;2022-10-26T03:18:31;11.40;99.90
12039;DHT22;6080;48.818;9.526;2022-10-26T03:20:56;11.30;99.90
12039;DHT22;6080;48.818;9.526;2022-10-26T03:23:22;11.30;99.90
12039;DHT22;6080;48.818;9.526;2022-10-26T03:25:48;11.30;99.90
12039;DHT22;6080;48.818;9.526;2022-10-26T03:28:13;11.40;99.90
12039;DHT22;6080;48.818;9.526;2022-10-26T03:30:39;11.40;99.90
12039;DHT22;6080;48.818;9.526;2022-10-26T03:33:05;11.40;99.90
12039;DHT22;6080;48.818;9.526;2022-10-26T03:35:31;11.40;99.90
12039;DHT22;6080;48.818;9.526;2022-10-26T03:37:57;11.40;99.90
12039;DHT22;6080;48.818;9.526;2022-10-26T03:40:23;11.50;99.90
12039;DHT22;6080;48.818;9.526;2022-10-26T03:42:48;11.50;99.90
12039;DHT22;6080;48.818;9.526;2022-10-26T03:45:14;11.50;99.90
12039;DHT22;6080;48.818;9.526;2022-10-26T03:47:44;11.60;99.90
12039;DHT22;6080;48.818;9.526;2022-10-26T03:50:11;11.60;99.90
12039;DHT22;6080;48.818;9.526;2022-10-26T03:52:37;11.70;99.90
12039;DHT22;6080;48.818;9.526;2022-10-26T03:55:04;11.60;99.90
12039;DHT22;6080;48.818;9.526;2022-10-26T03:57:29;11.60;99.90
12039;DHT22;6080;48.818;9.526;2022-10-26T03:59:55;11.60;99.90
12039;DHT22;6080;48.818;9.526;2022-10-26T04:02:21;11.70;99.90
12039;DHT22;6080;48.818;9.526;2022-10-26T04:04:47;11.70;99.90
12039;DHT22;6080;48.818;9.526;2022-10-26T04:07:12;11.70;99.90
12039;DHT22;6080;48.818;9.526;2022-10-26T04:09:38;11.60;99.90
12039;DHT22;6080;48.818;9.526;2022-10-26T04:12:04;11.70;99.90
12039;DHT22;6080;48.818;9.526;2022-10-26T04:14:30;11.60;99.90
12039;DHT22;6080;48.818;9.526;2022-10-26T04:16:55;11.60;99.90
12039;DHT22;6080;48.818;9.526;2022-10-26T04:19:21;11.60;99.90
12039;DHT22;6080;48.818;9.526;2022-10-26T04:21:48;11.60;99.90
12039;DHT22;6080;48.818;9.526;2022-10-26T04:24:15;11.60;99.90
12039;DHT22;6080;48.818;9.526;2022-10-26T04:26:40;11.50;99.90
12039;DHT22;6080;48.818;9.526;2022-10-26T04:29:06;11.50;99.90
12039;DHT22;6080;48.818;9.526;2022-10-26T04:31:33;11.40;99.90
12039;DHT22;6080;48.818;9.526;2022-10-26T04:33:59;11.40;99.90
12039;DHT22;6080;48.818;9.526;2022-10-26T04:36:25;11.40;99.90
12039;DHT22;6080;48.818;9.526;2022-10-26T04:38:51;11.40;99.90
12039;DHT22;6080;48.818;9.526;2022-10-26T04:41:16;11.40;99.90
12039;DHT22;6080;48.818;9.526;2022-10-26T04:43:42;11.40;99.90
12039;DHT22;6080;48.818;9.526;2022-10-26T04:46:08;11.50;99.90
12039;DHT22;6080;48.818;9.526;2022-10-26T04:48:33;11.50;99.90
12039;DHT22;6080;48.818;9.526;2022-10-26T04:51:00;11.50;99.90
12039;DHT22;6080;48.818;9.526;2022-10-26T04:53:26;11.50;99.90
12039;DHT22;6080;48.818;9.526;2022-10-26T04:55:56;11.50;99.90
12039;DHT22;6080;48.818;9.526;2022-10-26T04:58:22;11.60;99.90
12039;DHT22;6080;48.818;9.526;2022-10-26T05:00:48;11.60;99.90
12039;DHT22;6080;48.818;9.526;2022-10-26T05:03:13;11.70;99.90
12039;DHT22;6080;48.818;9.526;2022-10-26T05:05:39;11.70;99.90
12039;DHT22;6080;48.818;9.526;2022-10-26T05:08:05;11.60;99.90
12039;DHT22;6080;48.818;9.526;2022-10-26T05:10:31;11.50;99.90
12039;DHT22;6080;48.818;9.526;2022-10-26T05:12:58;11.60;99.90
12039;DHT22;6080;48.818;9.526;2022-10-26T05:15:25;11.60;99.90
12039;DHT22;6080;48.818;9.526;2022-10-26T05:18:00;11.60;99.90
12039;DHT22;6080;48.818;9.526;2022-10-26T05:20:29;11.70;99.90
12039;DHT22;6080;48.818;9.526;2022-10-26T05:23:03;11.70;99.90
12039;DHT22;6080;48.818;9.526;2022-10-26T05:25:31;11.70;99.90
12039;DHT22;6080;48.818;9.526;2022-10-26T05:27:59;11.70;99.90
12039;DHT22;6080;48.818;9.526;2022-10-26T05:30:26;11.70;99.90
12039;DHT22;6080;48.818;9.526;2022-10-26T05:32:56;11.70;99.90
12039;DHT22;6080;48.818;9.526;2022-10-26T05:35:22;11.70;99.90
12039;DHT22;6080;48.818;9.526;2022-10-26T05:37:48;11.70;99.90
12039;DHT22;6080;48.818;9.526;2022-10-26T05:40:14;11.80;99.90
12039;DHT22;6080;48.818;9.526;2022-10-26T05:42:41;11.70;99.90
12039;DHT22;6080;48.818;9.526;2022-10-26T05:45:07;11.80;99.90
12039;DHT22;6080;48.818;9.526;2022-10-26T05:47:40;11.80;99.90
12039;DHT22;6080;48.818;9.526;2022-10-26T05:50:07;11.80;99.90
12039;DHT22;6080;48.818;9.526;2022-10-26T05:52:40;11.80;99.90
12039;DHT22;6080;48.818;9.526;2022-10-26T05:55:07;11.80;99.90
12039;DHT22;6080;48.818;9.526;2022-10-26T05:57:35;11.80;99.90
12039;DHT22;6080;48.818;9.526;2022-10-26T06:00:01;11.80;99.90
12039;DHT22;6080;48.818;9.526;2022-10-26T06:05:17;11.80;99.90
12039;DHT22;6080;48.818;9.526;2022-10-26T06:07:45;11.90;99.90
12039;DHT22;6080;48.818;9.526;2022-10-26T06:10:11;11.90;99.90
12039;DHT22;6080;48.818;9.526;2022-10-26T06:12:37;11.90;99.90
12039;DHT22;6080;48.818;9.526;2022-10-26T06:15:04;11.90;99.90
12039;DHT22;6080;48.818;9.526;2022-10-26T06:17:49;11.90;99.90
12039;DHT22;6080;48.818;9.526;2022-10-26T06:20:34;11.90;99.90
12039;DHT22;6080;48.818;9.526;2022-10-26T06:26:03;12.00;99.90
12039;DHT22;6080;48.818;9.526;2022-10-26T06:28:59;12.00;99.90
12039;DHT22;6080;48.818;9.526;2022-10-26T06:31:28;12.10;99.90
12039;DHT22;6080;48.818;9.526;2022-10-26T06:33:57;12.10;99.90
12039;DHT22;6080;48.818;9.526;2022-10-26T06:36:26;12.10;99.90
12039;DHT22;6080;48.818;9.526;2022-10-26T06:38:57;12.10;99.90
12039;DHT22;6080;48.818;9.526;2022-10-26T06:41:24;12.10;99.90
12039;DHT22;6080;48.818;9.526;2022-10-26T06:43:51;12.20;99.90
12039;DHT22;6080;48.818;9.526;2022-10-26T06:46:40;12.20;99.90
12039;DHT22;6080;48.818;9.526;2022-10-26T06:49:12;12.20;99.90
12039;DHT22;6080;48.818;9.526;2022-10-26T06:51:48;12.20;99.90
12039;DHT22;6080;48.818;9.526;2022-10-26T06:56:56;12.30;99.90
12039;DHT22;6080;48.818;9.526;2022-10-26T06:59:36;12.30;99.90
12039;DHT22;6080;48.818;9.526;2022-10-26T07:02:03;12.30;99.90
12039;DHT22;6080;48.818;9.526;2022-10-26T07:04:29;12.30;99.90
12039;DHT22;6080;48.818;9.526;2022-10-26T07:06:55;12.30;99.90
12039;DHT22;6080;48.818;9.526;2022-10-26T07:09:21;12.30;99.90
12039;DHT22;6080;48.818;9.526;2022-10-26T07:11:47;12.30;99.90
12039;DHT22;6080;48.818;9.526;2022-10-26T07:14:13;12.40;99.90
12039;DHT22;6080;48.818;9.526;2022-10-26T07:16:39;12.40;99.90
12039;DHT22;6080;48.818;9.526;2022-10-26T07:19:05;12.50;99.90
12039;DHT22;6080;48.818;9.526;2022-10-26T07:21:31;12.50;99.90
12039;DHT22;6080;48.818;9.526;2022-10-26T07:23:56;12.60;99.90
12039;DHT22;6080;48.818;9.526;2022-10-26T07:26:22;12.60;99.90
12039;DHT22;6080;48.818;9.526;2022-10-26T07:28:50;12.60;99.90
12039;DHT22;6080;48.818;9.526;2022-10-26T07:31:16;12.60;99.90
12039;DHT22;6080;48.818;9.526;2022-10-26T07:33:42;12.60;99.90
12039;DHT22;6080;48.818;9.526;2022-10-26T07:36:10;12.60;99.90
12039;DHT22;6080;48.818;9.526;2022-10-26T07:38:37;12.60;99.90
12039;DHT22;6080;48.818;9.526;2022-10-26T07:41:03;12.70;99.90
12039;DHT22;6080;48.818;9.526;2022-10-26T07:43:29;12.70;99.90
12039;DHT22;6080;48.818;9.526;2022-10-26T07:45:55;12.70;99.90
12039;DHT22;6080;48.818;9.526;2022-10-26T07:48:21;12.80;99.90
12039;DHT22;6080;48.818;9.526;2022-10-26T07:50:47;12.80;99.90
12039;DHT22;6080;48.818;9.526;2022-10-26T07:53:13;12.80;99.90
12039;DHT22;6080;48.818;9.526;2022-10-26T07:55:39;12.80;99.90
12039;DHT22;6080;48.818;9.526;2022-10-26T07:58:05;12.80;99.90
12039;DHT22;6080;48.818;9.526;2022-10-26T08:00:31;12.80;99.90
12039;DHT22;6080;48.818;9.526;2022-10-26T08:02:57;12.80;99.90
12039;DHT22;6080;48.818;9.526;2022-10-26T08:05:22;12.80;99.90
12039;DHT22;6080;48.818;9.526;2022-10-26T08:07:48;12.80;99.90
12039;DHT22;6080;48.818;9.526;2022-10-26T08:10:14;12.80;99.90
12039;DHT22;6080;48.818;9.526;2022-10-26T08:12:41;12.90;99.90
12039;DHT22;6080;48.818;9.526;2022-10-26T08:15:08;12.90;99.90
12039;DHT22;6080;48.818;9.526;2022-10-26T08:17:34;13.00;99.90
12039;DHT22;6080;48.818;9.526;2022-10-26T08:20:00;13.00;99.90
12039;DHT22;6080;48.818;9.526;2022-10-26T08:22:28;13.00;99.90
12039;DHT22;6080;48.818;9.526;2022-10-26T08:24:54;13.10;99.90
12039;DHT22;6080;48.818;9.526;2022-10-26T08:27:20;13.10;99.90
12039;DHT22;6080;48.818;9.526;2022-10-26T08:29:46;13.20;99.90
12039;DHT22;6080;48.818;9.526;2022-10-26T08:32:12;13.40;99.90
12039;DHT22;6080;48.818;9.526;2022-10-26T08:34:37;13.60;99.90
12039;DHT22;6080;48.818;9.526;2022-10-26T08:37:03;13.80;99.90
12039;DHT22;6080;48.818;9.526;2022-10-26T08:39:29;14.00;99.90
12039;DHT22;6080;48.818;9.526;2022-10-26T08:42:02;14.20;99.90
12039;DHT22;6080;48.818;9.526;2022-10-26T08:44:45;14.20;99.90
12039;DHT22;6080;48.818;9.526;2022-10-26T08:47:20;14.30;99.90
12039;DHT22;6080;48.818;9.526;2022-10-26T08:50:07;14.30;99.90
12039;DHT22;6080;48.818;9.526;2022-10-26T08:52:50;14.40;99.90
12039;DHT22;6080;48.818;9.526;2022-10-26T08:55:21;14.40;99.90
12039;DHT22;6080;48.818;9.526;2022-10-26T08:57:49;14.40;99.90
12039;DHT22;6080;48.818;9.526;2022-10-26T09:00:18;14.50;99.90
12039;DHT22;6080;48.818;9.526;2022-10-26T09:02:49;14.50;99.90
12039;DHT22;6080;48.818;9.526;2022-10-26T09:05:27;14.50;99.90
12039;DHT22;6080;48.818;9.526;2022-10-26T09:25:23;15.10;99.90
12039;DHT22;6080;48.818;9.526;2022-10-26T09:27:59;15.30;99.90
12039;DHT22;6080;48.818;9.526;2022-10-26T09:30:26;15.50;99.90
12039;DHT22;6080;48.818;9.526;2022-10-26T09:32:57;15.70;99.90
12039;DHT22;6080;48.818;9.526;2022-10-26T09:35:48;15.80;99.90
12039;DHT22;6080;48.818;9.526;2022-10-26T09:38:35;16.00;99.90
12039;DHT22;6080;48.818;9.526;2022-10-26T09:43:45;16.80;99.90
12039;DHT22;6080;48.818;9.526;2022-10-26T09:46:19;17.30;99.90
12039;DHT22;6080;48.818;9.526;2022-10-26T09:48:50;17.80;99.90
12039;DHT22;6080;48.818;9.526;2022-10-26T09:51:18;18.10;99.90
12039;DHT22;6080;48.818;9.526;2022-10-26T09:53:44;18.20;99.90
12039;DHT22;6080;48.818;9.526;2022-10-26T09:56:14;18.50;99.90
12039;DHT22;6080;48.818;9.526;2022-10-26T09:58:43;19.40;99.90
12039;DHT22;6080;48.818;9.526;2022-10-26T10:01:40;19.80;99.90
12039;DHT22;6080;48.818;9.526;2022-10-26T10:06:42;21.10;99.90
12039;DHT22;6080;48.818;9.526;2022-10-26T10:09:28;22.20;99.90
12039;DHT22;6080;48.818;9.526;2022-10-26T10:11:56;22.80;99.90
12039;DHT22;6080;48.818;9.526;2022-10-26T10:14:25;23.60;99.90
12039;DHT22;6080;48.818;9.526;2022-10-26T10:17:03;24.20;99.90
12039;DHT22;6080;48.818;9.526;2022-10-26T10:19:33;24.60;99.90
12039;DHT22;6080;48.818;9.526;2022-10-26T10:22:11;25.20;99.90
12039;DHT22;6080;48.818;9.526;2022-10-26T10:24:40;25.50;99.90
12039;DHT22;6080;48.818;9.526;2022-10-26T10:29:43;25.50;99.90
12039;DHT22;6080;48.818;9.526;2022-10-26T10:32:15;25.10;99.90
12039;DHT22;6080;48.818;9.526;2022-10-26T10:34:42;24.30;99.90
12039;DHT22;6080;48.818;9.526;2022-10-26T10:37:28;24.10;99.90
12039;DHT22;6080;48.818;9.526;2022-10-26T10:39:59;23.70;99.90
12039;DHT22;6080;48.818;9.526;2022-10-26T10:42:30;23.60;99.90
12039;DHT22;6080;48.818;9.526;2022-10-26T10:44:57;23.20;99.90
12039;DHT22;6080;48.818;9.526;2022-10-26T10:47:27;23.40;99.90
12039;DHT22;6080;48.818;9.526;2022-10-26T10:50:00;23.40;99.90
12039;DHT22;6080;48.818;9.526;2022-10-26T10:52:32;23.20;99.90
12039;DHT22;6080;48.818;9.526;2022-10-26T10:58:00;22.70;99.90
12039;DHT22;6080;48.818;9.526;2022-10-26T11:00:30;22.70;99.90
12039;DHT22;6080;48.818;9.526;2022-10-26T11:08:33;25.60;99.90
12039;DHT22;6080;48.818;9.526;2022-10-26T11:11:08;26.00;99.90
12039;DHT22;6080;48.818;9.526;2022-10-26T11:16:34;26.30;99.90
12039;DHT22;6080;48.818;9.526;2022-10-26T11:19:21;25.90;99.90
12039;DHT22;6080;48.818;9.526;2022-10-26T11:21:52;25.00;99.90
12039;DHT22;6080;48.818;9.526;2022-10-26T11:27:01;23.80;99.90
12039;DHT22;6080;48.818;9.526;2022-10-26T11:32:30;24.30;99.90
12039;DHT22;6080;48.818;9.526;2022-10-26T11:38:18;24.80;99.90
12039;DHT22;6080;48.818;9.526;2022-10-26T11:40:56;26.40;99.90
12039;DHT22;6080;48.818;9.526;2022-10-26T11:43:42;26.80;99.90
12039;DHT22;6080;48.818;9.526;2022-10-26T11:46:22;26.00;99.90
12039;DHT22;6080;48.818;9.526;2022-10-26T11:51:49;24.70;99.90
12039;DHT22;6080;48.818;9.526;2022-10-26T11:54:32;24.10;99.90
12039;DHT22;6080;48.818;9.526;2022-10-26T11:57:00;23.60;99.90
12039;DHT22;6080;48.818;9.526;2022-10-26T11:59:29;23.20;99.90
12039;DHT22;6080;48.818;9.526;2022-10-26T12:02:05;23.20;99.90
12039;DHT22;6080;48.818;9.526;2022-10-26T12:04:36;23.30;99.90
12039;DHT22;6080;48.818;9.526;2022-10-26T12:07:09;23.90;99.90
12039;DHT22;6080;48.818;9.526;2022-10-26T12:09:38;24.50;99.90
12039;DHT22;6080;48.818;9.526;2022-10-26T12:12:22;24.80;99.90
12039;DHT22;6080;48.818;9.526;2022-10-26T12:14:55;25.90;99.90
12039;DHT22;6080;48.818;9.526;2022-10-26T12:17:36;27.00;99.90
12039;DHT22;6080;48.818;9.526;2022-10-26T12:22:35;25.40;99.90
12039;DHT22;6080;48.818;9.526;2022-10-26T12:37:57;27.70;99.90
12039;DHT22;6080;48.818;9.526;2022-10-26T12:46:35;25.80;99.90
12039;DHT22;6080;48.818;9.526;2022-10-26T12:48:56;24.90;99.90
12039;DHT22;6080;48.818;9.526;2022-10-26T12:56:46;24.10;99.90
12039;DHT22;6080;48.818;9.526;2022-10-26T12:59:39;24.40;99.90
12039;DHT22;6080;48.818;9.526;2022-10-26T13:07:41;24.30;99.90
12039;DHT22;6080;48.818;9.526;2022-10-26T13:12:53;23.70;99.90
12039;DHT22;6080;48.818;9.526;2022-10-26T13:20:23;23.20;99.90
12039;DHT22;6080;48.818;9.526;2022-10-26T13:22:49;23.10;99.90
12039;DHT22;6080;48.818;9.526;2022-10-26T13:25:24;23.20;99.90
12039;DHT22;6080;48.818;9.526;2022-10-26T13:27:59;23.20;99.90
12039;DHT22;6080;48.818;9.526;2022-10-26T13:30:46;23.60;99.90
12039;DHT22;6080;48.818;9.526;2022-10-26T13:33:20;23.50;99.90
12039;DHT22;6080;48.818;9.526;2022-10-26T13:35:50;23.50;99.90
12039;DHT22;6080;48.818;9.526;2022-10-26T13:38:19;23.20;99.90
12039;DHT22;6080;48.818;9.526;2022-10-26T13:40:46;22.80;99.90
12039;DHT22;6080;48.818;9.526;2022-10-26T13:43:20;22.70;99.90
12039;DHT22;6080;48.818;9.526;2022-10-26T13:45:59;22.60;99.90
12039;DHT22;6080;48.818;9.526;2022-10-26T13:48:38;22.60;99.90
12039;DHT22;6080;48.818;9.526;2022-10-26T13:51:19;22.60;99.90
12039;DHT22;6080;48.818;9.526;2022-10-26T13:53:50;22.40;99.90
12039;DHT22;6080;48.818;9.526;2022-10-26T13:58:54;22.80;99.90
12039;DHT22;6080;48.818;9.526;2022-10-26T14:01:23;22.70;99.90
12039;DHT22;6080;48.818;9.526;2022-10-26T14:03:50;22.50;99.90
12039;DHT22;6080;48.818;9.526;2022-10-26T14:06:21;22.30;99.90
12039;DHT22;6080;48.818;9.526;2022-10-26T14:08:49;21.90;99.90
12039;DHT22;6080;48.818;9.526;2022-10-26T14:11:19;21.60;99.90
12039;DHT22;6080;48.818;9.526;2022-10-26T14:13:49;21.50;99.90
12039;DHT22;6080;48.818;9.526;2022-10-26T14:16:17;21.30;99.90
12039;DHT22;6080;48.818;9.526;2022-10-26T14:18:47;21.20;99.90
12039;DHT22;6080;48.818;9.526;2022-10-26T14:21:19;21.20;99.90
12039;DHT22;6080;48.818;9.526;2022-10-26T14:23:54;21.10;99.90
12039;DHT22;6080;48.818;9.526;2022-10-26T14:26:29;21.10;99.90
12039;DHT22;6080;48.818;9.526;2022-10-26T14:28:58;21.10;99.90
12039;DHT22;6080;48.818;9.526;2022-10-26T14:31:32;21.00;99.90
12039;DHT22;6080;48.818;9.526;2022-10-26T14:33:59;20.90;99.90
12039;DHT22;6080;48.818;9.526;2022-10-26T14:36:37;20.80;99.90
12039;DHT22;6080;48.818;9.526;2022-10-26T14:39:08;20.70;99.90
12039;DHT22;6080;48.818;9.526;2022-10-26T14:41:37;20.60;99.90
12039;DHT22;6080;48.818;9.526;2022-10-26T14:44:03;20.50;99.90
12039;DHT22;6080;48.818;9.526;2022-10-26T14:46:33;20.40;99.90
12039;DHT22;6080;48.818;9.526;2022-10-26T14:49:00;20.30;99.90
12039;DHT22;6080;48.818;9.526;2022-10-26T14:51:29;20.20;99.90
12039;DHT22;6080;48.818;9.526;2022-10-26T14:53:59;20.10;99.90
12039;DHT22;6080;48.818;9.526;2022-10-26T14:59:29;20.00;99.90
12039;DHT22;6080;48.818;9.526;2022-10-26T15:04:40;19.90;99.90
12039;DHT22;6080;48.818;9.526;2022-10-26T15:07:07;19.80;99.90
12039;DHT22;6080;48.818;9.526;2022-10-26T15:09:51;19.80;99.90
12039;DHT22;6080;48.818;9.526;2022-10-26T15:12:20;19.70;99.90
12039;DHT22;6080;48.818;9.526;2022-10-26T15:14:47;19.50;99.90
12039;DHT22;6080;48.818;9.526;2022-10-26T15:17:21;19.40;99.90
12039;DHT22;6080;48.818;9.526;2022-10-26T15:19:49;19.20;99.90
12039;DHT22;6080;48.818;9.526;2022-10-26T15:22:22;19.00;99.90
12039;DHT22;6080;48.818;9.526;2022-10-26T15:25:02;18.80;99.90
12039;DHT22;6080;48.818;9.526;2022-10-26T15:27:29;18.70;99.90
12039;DHT22;6080;48.818;9.526;2022-10-26T15:30:19;18.60;99.90
12039;DHT22;6080;48.818;9.526;2022-10-26T15:32:45;18.50;99.90
12039;DHT22;6080;48.818;9.526;2022-10-26T15:35:22;18.40;99.90
12039;DHT22;6080;48.818;9.526;2022-10-26T15:37:51;18.20;99.90
12039;DHT22;6080;48.818;9.526;2022-10-26T15:40:18;18.10;99.90
12039;DHT22;6080;48.818;9.526;2022-10-26T15:42:48;18.00;99.90
12039;DHT22;6080;48.818;9.526;2022-10-26T15:45:22;17.90;99.90
12039;DHT22;6080;48.818;9.526;2022-10-26T15:47:50;17.90;99.90
12039;DHT22;6080;48.818;9.526;2022-10-26T15:50:20;17.80;99.90
12039;DHT22;6080;48.818;9.526;2022-10-26T15:52:47;17.80;99.90
12039;DHT22;6080;48.818;9.526;2022-10-26T15:55:13;17.70;99.90
12039;DHT22;6080;48.818;9.526;2022-10-26T15:57:39;17.50;99.90
12039;DHT22;6080;48.818;9.526;2022-10-26T16:00:07;17.40;99.90
12039;DHT22;6080;48.818;9.526;2022-10-26T16:02:35;17.30;99.90
12039;DHT22;6080;48.818;9.526;2022-10-26T16:05:01;17.10;99.90
12039;DHT22;6080;48.818;9.526;2022-10-26T16:07:27;17.00;99.90
12039;DHT22;6080;48.818;9.526;2022-10-26T16:09:53;17.00;99.90
12039;DHT22;6080;48.818;9.526;2022-10-26T16:12:19;16.90;99.90
12039;DHT22;6080;48.818;9.526;2022-10-26T16:14:45;16.80;99.90
12039;DHT22;6080;48.818;9.526;2022-10-26T16:17:11;16.70;99.90
12039;DHT22;6080;48.818;9.526;2022-10-26T16:19:36;16.70;99.90
12039;DHT22;6080;48.818;9.526;2022-10-26T16:22:02;16.50;99.90
12039;DHT22;6080;48.818;9.526;2022-10-26T16:24:30;16.50;99.90
12039;DHT22;6080;48.818;9.526;2022-10-26T16:26:57;16.40;99.90
12039;DHT22;6080;48.818;9.526;2022-10-26T16:29:23;16.30;99.90
12039;DHT22;6080;48.818;9.526;2022-10-26T16:31:49;16.20;99.90
12039;DHT22;6080;48.818;9.526;2022-10-26T16:34:17;16.20;99.90
12039;DHT22;6080;48.818;9.526;2022-10-26T16:36:43;16.10;99.90
12039;DHT22;6080;48.818;9.526;2022-10-26T16:39:11;16.00;99.90
12039;DHT22;6080;48.818;9.526;2022-10-26T16:41:37;15.80;99.90
12039;DHT22;6080;48.818;9.526;2022-10-26T16:44:03;15.70;99.90
12039;DHT22;6080;48.818;9.526;2022-10-26T16:46:29;15.70;99.90
12039;DHT22;6080;48.818;9.526;2022-10-26T16:48:55;15.50;99.90
12039;DHT22;6080;48.818;9.526;2022-10-26T16:51:26;15.50;99.90
12039;DHT22;6080;48.818;9.526;2022-10-26T16:53:54;15.40;99.90
12039;DHT22;6080;48.818;9.526;2022-10-26T16:56:26;15.30;99.90
12039;DHT22;6080;48.818;9.526;2022-10-26T16:58:53;15.30;99.90
12039;DHT22;6080;48.818;9.526;2022-10-26T17:01:20;15.20;99.90
12039;DHT22;6080;48.818;9.526;2022-10-26T17:03:50;15.10;99.90
12039;DHT22;6080;48.818;9.526;2022-10-26T17:06:17;14.90;99.90
12039;DHT22;6080;48.818;9.526;2022-10-26T17:08:43;14.80;99.90
12039;DHT22;6080;48.818;9.526;2022-10-26T17:11:14;14.80;99.90
12039;DHT22;6080;48.818;9.526;2022-10-26T17:13:41;14.70;99.90
12039;DHT22;6080;48.818;9.526;2022-10-26T17:16:10;14.70;99.90
12039;DHT22;6080;48.818;9.526;2022-10-26T17:18:39;14.70;99.90
12039;DHT22;6080;48.818;9.526;2022-10-26T17:21:06;14.60;99.90
12039;DHT22;6080;48.818;9.526;2022-10-26T17:23:32;14.60;99.90
12039;DHT22;6080;48.818;9.526;2022-10-26T17:26:06;14.50;99.90
12039;DHT22;6080;48.818;9.526;2022-10-26T17:28:32;14.50;99.90
12039;DHT22;6080;48.818;9.526;2022-10-26T17:31:05;14.50;99.90
12039;DHT22;6080;48.818;9.526;2022-10-26T17:33:32;14.50;99.90
12039;DHT22;6080;48.818;9.526;2022-10-26T17:35:59;14.40;99.90
12039;DHT22;6080;48.818;9.526;2022-10-26T17:38:26;14.30;99.90
12039;DHT22;6080;48.818;9.526;2022-10-26T17:40:59;14.20;99.90
12039;DHT22;6080;48.818;9.526;2022-10-26T17:43:25;14.00;99.90
12039;DHT22;6080;48.818;9.526;2022-10-26T17:45:50;14.00;99.90
12039;DHT22;6080;48.818;9.526;2022-10-26T17:48:16;13.90;99.90
12039;DHT22;6080;48.818;9.526;2022-10-26T17:50:42;13.90;99.90
12039;DHT22;6080;48.818;9.526;2022-10-26T17:53:07;13.90;99.90
12039;DHT22;6080;48.818;9.526;2022-10-26T17:55:33;13.90;99.90
12039;DHT22;6080;48.818;9.526;2022-10-26T17:57:59;13.90;99.90
12039;DHT22;6080;48.818;9.526;2022-10-26T18:00:25;13.90;99.90
12039;DHT22;6080;48.818;9.526;2022-10-26T18:02:50;13.90;99.90
12039;DHT22;6080;48.818;9.526;2022-10-26T18:05:16;13.80;99.90
12039;DHT22;6080;48.818;9.526;2022-10-26T18:07:42;13.70;99.90
12039;DHT22;6080;48.818;9.526;2022-10-26T18:10:08;13.70;99.90
12039;DHT22;6080;48.818;9.526;2022-10-26T18:12:33;13.70;99.90